Camp H M Smith, Hawaii
Current Conditions -  °F | °C
As of 7:53 AM on Thursday 30 Oct 2014 (Local Time) from PHNL Reporting Station
Broken Clouds Broken Clouds  
Wind Chill: 80°   Ceiling: 26000
Heat Index: 82°   Visibility: 10mi
Dew Point: 67°   Wind: 12mph
Humidity: 64%   Direction: 50°NE
Pressure: 30.07"   Gusts: NA
Location:  21.31°N, 157.86°W
Report Text: PHNL 301753Z 05010KT 10SM FEW027 SCT036 SCT045 BKN260 27/19 A3007 RMK AO2 SLP183 60000 T02670194 10267 20244 53012
Loading
Personal Weather Stations






























Interactive Weather Map
Tropical Storm Tracking
New forecast layout! Learn more

10-Day Weather Forecast

Advertisements
Track Severe Weather on mobile